sensor_id;sensor_type;location;lat;lon;timestamp;temperature;humidity
81192;DHT22;70665;47.652;-2.730;2024-01-30T00:01:22;13.00;89.80
81192;DHT22;70665;47.652;-2.730;2024-01-30T00:03:47;12.90;89.60
81192;DHT22;70665;47.652;-2.730;2024-01-30T00:06:13;12.80;89.60
81192;DHT22;70665;47.652;-2.730;2024-01-30T00:08:39;12.60;90.50
81192;DHT22;70665;47.652;-2.730;2024-01-30T00:11:04;12.30;91.10
81192;DHT22;70665;47.652;-2.730;2024-01-30T00:13:30;12.10;91.10
81192;DHT22;70665;47.652;-2.730;2024-01-30T00:15:56;12.10;90.90
81192;DHT22;70665;47.652;-2.730;2024-01-30T00:18:21;12.10;90.90
81192;DHT22;70665;47.652;-2.730;2024-01-30T00:20:47;11.90;90.50
81192;DHT22;70665;47.652;-2.730;2024-01-30T00:23:13;11.80;90.30
81192;DHT22;70665;47.652;-2.730;2024-01-30T00:25:38;11.80;90.20
81192;DHT22;70665;47.652;-2.730;2024-01-30T00:28:04;11.70;90.40
81192;DHT22;70665;47.652;-2.730;2024-01-30T00:30:30;11.70;90.70
81192;DHT22;70665;47.652;-2.730;2024-01-30T00:32:55;11.70;90.60
81192;DHT22;70665;47.652;-2.730;2024-01-30T00:35:21;11.60;90.90
81192;DHT22;70665;47.652;-2.730;2024-01-30T00:37:48;11.50;90.80
81192;DHT22;70665;47.652;-2.730;2024-01-30T00:40:14;11.60;90.30
81192;DHT22;70665;47.652;-2.730;2024-01-30T00:42:44;11.60;90.30
81192;DHT22;70665;47.652;-2.730;2024-01-30T00:45:14;11.70;90.10
81192;DHT22;70665;47.652;-2.730;2024-01-30T00:47:40;11.80;90.10
81192;DHT22;70665;47.652;-2.730;2024-01-30T00:50:06;11.70;89.80
81192;DHT22;70665;47.652;-2.730;2024-01-30T00:52:32;11.90;89.80
81192;DHT22;70665;47.652;-2.730;2024-01-30T00:54:59;11.90;89.60
81192;DHT22;70665;47.652;-2.730;2024-01-30T00:57:24;12.00;89.00
81192;DHT22;70665;47.652;-2.730;2024-01-30T00:59:50;11.90;89.50
81192;DHT22;70665;47.652;-2.730;2024-01-30T01:02:16;11.90;89.10
81192;DHT22;70665;47.652;-2.730;2024-01-30T01:04:43;12.00;89.20
81192;DHT22;70665;47.652;-2.730;2024-01-30T01:07:10;11.90;89.00
81192;DHT22;70665;47.652;-2.730;2024-01-30T01:09:35;11.90;89.10
81192;DHT22;70665;47.652;-2.730;2024-01-30T01:12:02;11.90;88.80
81192;DHT22;70665;47.652;-2.730;2024-01-30T01:14:27;11.90;88.20
81192;DHT22;70665;47.652;-2.730;2024-01-30T01:16:53;11.90;88.50
81192;DHT22;70665;47.652;-2.730;2024-01-30T01:19:19;11.80;88.10
81192;DHT22;70665;47.652;-2.730;2024-01-30T01:21:44;11.70;88.00
81192;DHT22;70665;47.652;-2.730;2024-01-30T01:24:10;11.60;88.30
81192;DHT22;70665;47.652;-2.730;2024-01-30T01:26:36;11.50;88.10
81192;DHT22;70665;47.652;-2.730;2024-01-30T01:29:01;11.50;88.50
81192;DHT22;70665;47.652;-2.730;2024-01-30T01:31:29;11.40;89.00
81192;DHT22;70665;47.652;-2.730;2024-01-30T01:33:55;11.40;89.00
81192;DHT22;70665;47.652;-2.730;2024-01-30T01:36:21;11.40;88.80
81192;DHT22;70665;47.652;-2.730;2024-01-30T01:38:46;11.40;88.90
81192;DHT22;70665;47.652;-2.730;2024-01-30T01:41:12;11.40;89.00
81192;DHT22;70665;47.652;-2.730;2024-01-30T01:43:38;11.30;89.10
81192;DHT22;70665;47.652;-2.730;2024-01-30T01:46:05;11.20;89.10
81192;DHT22;70665;47.652;-2.730;2024-01-30T01:48:32;11.20;89.00
81192;DHT22;70665;47.652;-2.730;2024-01-30T01:50:58;11.10;89.40
81192;DHT22;70665;47.652;-2.730;2024-01-30T01:53:24;11.10;89.30
81192;DHT22;70665;47.652;-2.730;2024-01-30T01:55:51;11.10;89.30
81192;DHT22;70665;47.652;-2.730;2024-01-30T01:58:19;11.10;88.90
81192;DHT22;70665;47.652;-2.730;2024-01-30T02:00:46;11.30;88.90
81192;DHT22;70665;47.652;-2.730;2024-01-30T02:03:14;11.10;88.30
81192;DHT22;70665;47.652;-2.730;2024-01-30T02:05:43;11.10;88.80
81192;DHT22;70665;47.652;-2.730;2024-01-30T02:08:09;11.10;88.80
81192;DHT22;70665;47.652;-2.730;2024-01-30T02:10:35;11.10;88.70
81192;DHT22;70665;47.652;-2.730;2024-01-30T02:13:00;11.10;88.40
81192;DHT22;70665;47.652;-2.730;2024-01-30T02:15:26;11.00;88.50
81192;DHT22;70665;47.652;-2.730;2024-01-30T02:17:51;11.10;88.70
81192;DHT22;70665;47.652;-2.730;2024-01-30T02:20:17;11.00;88.10
81192;DHT22;70665;47.652;-2.730;2024-01-30T02:22:43;11.00;88.20
81192;DHT22;70665;47.652;-2.730;2024-01-30T02:25:09;11.00;87.90
81192;DHT22;70665;47.652;-2.730;2024-01-30T02:27:34;11.00;87.90
81192;DHT22;70665;47.652;-2.730;2024-01-30T02:30:00;11.00;88.10
81192;DHT22;70665;47.652;-2.730;2024-01-30T02:32:26;11.10;87.90
81192;DHT22;70665;47.652;-2.730;2024-01-30T02:34:51;10.90;87.30
81192;DHT22;70665;47.652;-2.730;2024-01-30T02:37:17;11.00;86.70
81192;DHT22;70665;47.652;-2.730;2024-01-30T02:39:43;10.70;86.60
81192;DHT22;70665;47.652;-2.730;2024-01-30T02:42:08;10.70;86.80
81192;DHT22;70665;47.652;-2.730;2024-01-30T02:44:34;10.60;86.80
81192;DHT22;70665;47.652;-2.730;2024-01-30T02:46:59;10.50;86.70
81192;DHT22;70665;47.652;-2.730;2024-01-30T02:49:25;10.40;87.10
81192;DHT22;70665;47.652;-2.730;2024-01-30T02:51:53;10.40;87.00
81192;DHT22;70665;47.652;-2.730;2024-01-30T02:54:19;10.40;86.90
81192;DHT22;70665;47.652;-2.730;2024-01-30T02:56:44;10.30;87.20
81192;DHT22;70665;47.652;-2.730;2024-01-30T02:59:10;10.20;86.80
81192;DHT22;70665;47.652;-2.730;2024-01-30T03:01:45;10.20;87.10
81192;DHT22;70665;47.652;-2.730;2024-01-30T03:04:12;10.20;87.20
81192;DHT22;70665;47.652;-2.730;2024-01-30T03:06:37;10.10;87.00
81192;DHT22;70665;47.652;-2.730;2024-01-30T03:09:03;10.10;87.40
81192;DHT22;70665;47.652;-2.730;2024-01-30T03:11:30;10.10;87.10
81192;DHT22;70665;47.652;-2.730;2024-01-30T03:13:56;10.00;87.10
81192;DHT22;70665;47.652;-2.730;2024-01-30T03:16:21;10.10;87.20
81192;DHT22;70665;47.652;-2.730;2024-01-30T03:18:47;10.00;87.50
81192;DHT22;70665;47.652;-2.730;2024-01-30T03:21:13;10.00;87.50
81192;DHT22;70665;47.652;-2.730;2024-01-30T03:23:39;10.00;87.60
81192;DHT22;70665;47.652;-2.730;2024-01-30T03:26:05;9.90;87.50
81192;DHT22;70665;47.652;-2.730;2024-01-30T03:28:32;9.90;87.90
81192;DHT22;70665;47.652;-2.730;2024-01-30T03:30:57;9.80;88.00
81192;DHT22;70665;47.652;-2.730;2024-01-30T03:33:23;9.90;88.20
81192;DHT22;70665;47.652;-2.730;2024-01-30T03:35:48;9.80;88.00
81192;DHT22;70665;47.652;-2.730;2024-01-30T03:38:14;9.90;88.00
81192;DHT22;70665;47.652;-2.730;2024-01-30T03:40:40;9.90;88.30
81192;DHT22;70665;47.652;-2.730;2024-01-30T03:43:05;9.80;88.50
81192;DHT22;70665;47.652;-2.730;2024-01-30T03:45:31;9.80;88.80
81192;DHT22;70665;47.652;-2.730;2024-01-30T03:47:56;9.70;88.90
81192;DHT22;70665;47.652;-2.730;2024-01-30T03:50:22;9.70;88.90
81192;DHT22;70665;47.652;-2.730;2024-01-30T03:52:48;9.70;89.00
81192;DHT22;70665;47.652;-2.730;2024-01-30T03:55:13;9.70;88.90
81192;DHT22;70665;47.652;-2.730;2024-01-30T03:57:39;9.60;88.80
81192;DHT22;70665;47.652;-2.730;2024-01-30T04:00:05;9.50;88.90
81192;DHT22;70665;47.652;-2.730;2024-01-30T04:02:31;9.50;88.90
81192;DHT22;70665;47.652;-2.730;2024-01-30T04:04:56;9.30;89.20
81192;DHT22;70665;47.652;-2.730;2024-01-30T04:07:22;9.30;89.20
81192;DHT22;70665;47.652;-2.730;2024-01-30T04:09:48;9.30;89.60
81192;DHT22;70665;47.652;-2.730;2024-01-30T04:12:13;9.30;89.70
81192;DHT22;70665;47.652;-2.730;2024-01-30T04:14:39;9.20;89.70
81192;DHT22;70665;47.652;-2.730;2024-01-30T04:17:05;9.10;89.90
81192;DHT22;70665;47.652;-2.730;2024-01-30T04:19:30;9.30;89.90
81192;DHT22;70665;47.652;-2.730;2024-01-30T04:21:56;9.30;89.90
81192;DHT22;70665;47.652;-2.730;2024-01-30T04:24:22;9.20;89.60
81192;DHT22;70665;47.652;-2.730;2024-01-30T04:26:47;9.20;89.60
81192;DHT22;70665;47.652;-2.730;2024-01-30T04:29:13;9.20;89.40
81192;DHT22;70665;47.652;-2.730;2024-01-30T04:31:38;9.20;89.70
81192;DHT22;70665;47.652;-2.730;2024-01-30T04:34:04;9.10;89.80
81192;DHT22;70665;47.652;-2.730;2024-01-30T04:36:30;9.20;90.30
81192;DHT22;70665;47.652;-2.730;2024-01-30T04:38:55;9.20;90.10
81192;DHT22;70665;47.652;-2.730;2024-01-30T04:41:21;9.10;90.50
81192;DHT22;70665;47.652;-2.730;2024-01-30T04:43:46;9.20;90.60
81192;DHT22;70665;47.652;-2.730;2024-01-30T04:46:12;9.00;90.80
81192;DHT22;70665;47.652;-2.730;2024-01-30T04:48:38;9.10;90.80
81192;DHT22;70665;47.652;-2.730;2024-01-30T04:51:03;9.00;90.70
81192;DHT22;70665;47.652;-2.730;2024-01-30T04:53:30;9.00;90.40
81192;DHT22;70665;47.652;-2.730;2024-01-30T04:55:56;8.90;90.10
81192;DHT22;70665;47.652;-2.730;2024-01-30T04:58:22;8.90;89.70
81192;DHT22;70665;47.652;-2.730;2024-01-30T05:00:47;8.80;89.30
81192;DHT22;70665;47.652;-2.730;2024-01-30T05:03:17;8.80;89.10
81192;DHT22;70665;47.652;-2.730;2024-01-30T05:05:43;8.60;89.00
81192;DHT22;70665;47.652;-2.730;2024-01-30T05:08:08;8.50;89.20
81192;DHT22;70665;47.652;-2.730;2024-01-30T05:10:34;8.50;89.30
81192;DHT22;70665;47.652;-2.730;2024-01-30T05:13:00;8.40;89.50
81192;DHT22;70665;47.652;-2.730;2024-01-30T05:15:25;8.30;89.70
81192;DHT22;70665;47.652;-2.730;2024-01-30T05:17:51;8.20;89.70
81192;DHT22;70665;47.652;-2.730;2024-01-30T05:20:17;8.30;89.80
81192;DHT22;70665;47.652;-2.730;2024-01-30T05:22:43;8.20;89.70
81192;DHT22;70665;47.652;-2.730;2024-01-30T05:25:11;8.10;89.70
81192;DHT22;70665;47.652;-2.730;2024-01-30T05:27:37;7.90;89.50
81192;DHT22;70665;47.652;-2.730;2024-01-30T05:30:03;8.10;90.00
81192;DHT22;70665;47.652;-2.730;2024-01-30T05:32:29;8.00;90.30
81192;DHT22;70665;47.652;-2.730;2024-01-30T05:34:54;8.00;90.30
81192;DHT22;70665;47.652;-2.730;2024-01-30T05:37:20;7.90;90.20
81192;DHT22;70665;47.652;-2.730;2024-01-30T05:39:46;7.90;90.20
81192;DHT22;70665;47.652;-2.730;2024-01-30T05:42:12;7.90;90.50
81192;DHT22;70665;47.652;-2.730;2024-01-30T05:44:37;7.90;90.10
81192;DHT22;70665;47.652;-2.730;2024-01-30T05:47:03;7.80;90.20
81192;DHT22;70665;47.652;-2.730;2024-01-30T05:49:29;7.80;90.30
81192;DHT22;70665;47.652;-2.730;2024-01-30T05:51:54;7.70;90.10
81192;DHT22;70665;47.652;-2.730;2024-01-30T05:54:20;7.50;89.90
81192;DHT22;70665;47.652;-2.730;2024-01-30T05:56:45;7.50;89.80
81192;DHT22;70665;47.652;-2.730;2024-01-30T05:59:11;7.60;89.90
81192;DHT22;70665;47.652;-2.730;2024-01-30T06:01:37;7.60;90.10
81192;DHT22;70665;47.652;-2.730;2024-01-30T06:04:02;7.50;89.70
81192;DHT22;70665;47.652;-2.730;2024-01-30T06:06:28;7.50;89.80
81192;DHT22;70665;47.652;-2.730;2024-01-30T06:08:54;7.40;89.90
81192;DHT22;70665;47.652;-2.730;2024-01-30T06:11:21;7.40;89.70
81192;DHT22;70665;47.652;-2.730;2024-01-30T06:13:47;7.30;89.90
81192;DHT22;70665;47.652;-2.730;2024-01-30T06:16:12;7.30;89.50
81192;DHT22;70665;47.652;-2.730;2024-01-30T06:18:38;7.30;89.70
81192;DHT22;70665;47.652;-2.730;2024-01-30T06:21:04;7.20;90.30
81192;DHT22;70665;47.652;-2.730;2024-01-30T06:23:30;7.10;90.20
81192;DHT22;70665;47.652;-2.730;2024-01-30T06:25:55;7.00;89.80
81192;DHT22;70665;47.652;-2.730;2024-01-30T06:28:21;7.00;90.10
81192;DHT22;70665;47.652;-2.730;2024-01-30T06:30:47;7.00;89.90
81192;DHT22;70665;47.652;-2.730;2024-01-30T06:33:13;6.90;90.00
81192;DHT22;70665;47.652;-2.730;2024-01-30T06:35:40;7.10;90.30
81192;DHT22;70665;47.652;-2.730;2024-01-30T06:38:06;7.10;90.50
81192;DHT22;70665;47.652;-2.730;2024-01-30T06:40:32;7.30;90.80
81192;DHT22;70665;47.652;-2.730;2024-01-30T06:42:57;7.10;91.30
81192;DHT22;70665;47.652;-2.730;2024-01-30T06:45:23;7.20;91.60
81192;DHT22;70665;47.652;-2.730;2024-01-30T06:47:48;6.90;91.50
81192;DHT22;70665;47.652;-2.730;2024-01-30T06:50:14;7.10;91.40
81192;DHT22;70665;47.652;-2.730;2024-01-30T06:52:40;7.00;91.00
81192;DHT22;70665;47.652;-2.730;2024-01-30T06:55:06;6.90;90.90
81192;DHT22;70665;47.652;-2.730;2024-01-30T06:57:31;6.80;90.30
81192;DHT22;70665;47.652;-2.730;2024-01-30T06:59:57;6.80;90.50
81192;DHT22;70665;47.652;-2.730;2024-01-30T07:02:23;6.80;90.50
81192;DHT22;70665;47.652;-2.730;2024-01-30T07:04:48;6.80;90.80
81192;DHT22;70665;47.652;-2.730;2024-01-30T07:07:14;6.80;90.90
81192;DHT22;70665;47.652;-2.730;2024-01-30T07:09:40;6.60;90.20
81192;DHT22;70665;47.652;-2.730;2024-01-30T07:12:06;6.70;90.20
81192;DHT22;70665;47.652;-2.730;2024-01-30T07:14:33;6.70;90.20
81192;DHT22;70665;47.652;-2.730;2024-01-30T07:16:58;6.60;90.40
81192;DHT22;70665;47.652;-2.730;2024-01-30T07:19:24;6.80;90.40
81192;DHT22;70665;47.652;-2.730;2024-01-30T07:21:49;6.60;89.90
81192;DHT22;70665;47.652;-2.730;2024-01-30T07:24:15;6.60;90.10
81192;DHT22;70665;47.652;-2.730;2024-01-30T07:26:41;6.70;90.10
81192;DHT22;70665;47.652;-2.730;2024-01-30T07:29:06;6.50;90.20
81192;DHT22;70665;47.652;-2.730;2024-01-30T07:31:32;6.40;90.00
81192;DHT22;70665;47.652;-2.730;2024-01-30T07:33:58;6.50;90.30
81192;DHT22;70665;47.652;-2.730;2024-01-30T07:36:23;6.70;89.70
81192;DHT22;70665;47.652;-2.730;2024-01-30T07:38:49;6.50;89.00
81192;DHT22;70665;47.652;-2.730;2024-01-30T07:41:15;6.60;89.20
81192;DHT22;70665;47.652;-2.730;2024-01-30T07:43:40;6.50;88.70
81192;DHT22;70665;47.652;-2.730;2024-01-30T07:46:06;6.70;88.90
81192;DHT22;70665;47.652;-2.730;2024-01-30T07:48:35;6.60;88.50
81192;DHT22;70665;47.652;-2.730;2024-01-30T07:51:01;6.50;88.60
81192;DHT22;70665;47.652;-2.730;2024-01-30T07:53:28;6.60;88.30
81192;DHT22;70665;47.652;-2.730;2024-01-30T07:55:53;6.50;88.20
81192;DHT22;70665;47.652;-2.730;2024-01-30T07:58:19;6.40;88.70
81192;DHT22;70665;47.652;-2.730;2024-01-30T08:00:45;6.50;88.80
81192;DHT22;70665;47.652;-2.730;2024-01-30T08:03:11;6.60;88.80
81192;DHT22;70665;47.652;-2.730;2024-01-30T08:05:38;6.60;89.00
81192;DHT22;70665;47.652;-2.730;2024-01-30T08:08:04;6.70;88.70
81192;DHT22;70665;47.652;-2.730;2024-01-30T08:10:30;6.70;88.30
81192;DHT22;70665;47.652;-2.730;2024-01-30T08:12:56;6.50;88.50
81192;DHT22;70665;47.652;-2.730;2024-01-30T08:15:21;6.70;88.90
81192;DHT22;70665;47.652;-2.730;2024-01-30T08:17:47;6.70;89.00
81192;DHT22;70665;47.652;-2.730;2024-01-30T08:20:13;6.80;89.20
81192;DHT22;70665;47.652;-2.730;2024-01-30T08:22:39;6.90;89.10
81192;DHT22;70665;47.652;-2.730;2024-01-30T08:25:06;7.00;88.80
81192;DHT22;70665;47.652;-2.730;2024-01-30T08:27:31;7.00;88.70
81192;DHT22;70665;47.652;-2.730;2024-01-30T08:29:57;7.00;88.80
81192;DHT22;70665;47.652;-2.730;2024-01-30T08:32:23;7.10;89.20
81192;DHT22;70665;47.652;-2.730;2024-01-30T08:34:49;7.20;89.50
81192;DHT22;70665;47.652;-2.730;2024-01-30T08:37:15;7.20;89.10
81192;DHT22;70665;47.652;-2.730;2024-01-30T08:39:42;7.30;89.10
81192;DHT22;70665;47.652;-2.730;2024-01-30T08:42:08;7.30;89.60
81192;DHT22;70665;47.652;-2.730;2024-01-30T08:44:33;7.40;89.70
81192;DHT22;70665;47.652;-2.730;2024-01-30T08:46:59;7.40;89.60
81192;DHT22;70665;47.652;-2.730;2024-01-30T08:49:24;7.60;89.80
81192;DHT22;70665;47.652;-2.730;2024-01-30T08:51:50;7.40;89.50
81192;DHT22;70665;47.652;-2.730;2024-01-30T08:54:16;7.70;89.40
81192;DHT22;70665;47.652;-2.730;2024-01-30T08:56:41;7.90;89.60
81192;DHT22;70665;47.652;-2.730;2024-01-30T08:59:07;8.00;89.60
81192;DHT22;70665;47.652;-2.730;2024-01-30T09:01:33;7.90;89.70
81192;DHT22;70665;47.652;-2.730;2024-01-30T09:03:58;8.10;89.60
81192;DHT22;70665;47.652;-2.730;2024-01-30T09:06:24;8.10;89.20
81192;DHT22;70665;47.652;-2.730;2024-01-30T09:08:51;8.20;89.20
81192;DHT22;70665;47.652;-2.730;2024-01-30T09:11:18;8.40;89.40
81192;DHT22;70665;47.652;-2.730;2024-01-30T09:13:43;8.50;89.30
81192;DHT22;70665;47.652;-2.730;2024-01-30T09:16:09;8.40;89.30
81192;DHT22;70665;47.652;-2.730;2024-01-30T09:18:35;8.60;89.00
81192;DHT22;70665;47.652;-2.730;2024-01-30T09:21:01;8.80;88.80
81192;DHT22;70665;47.652;-2.730;2024-01-30T09:23:27;8.90;88.80
81192;DHT22;70665;47.652;-2.730;2024-01-30T09:25:53;8.90;88.60
81192;DHT22;70665;47.652;-2.730;2024-01-30T09:28:19;9.00;88.50
81192;DHT22;70665;47.652;-2.730;2024-01-30T09:30:44;9.10;88.10
81192;DHT22;70665;47.652;-2.730;2024-01-30T09:33:10;9.10;88.00
81192;DHT22;70665;47.652;-2.730;2024-01-30T09:35:36;9.20;87.90
81192;DHT22;70665;47.652;-2.730;2024-01-30T09:38:02;9.40;87.70
81192;DHT22;70665;47.652;-2.730;2024-01-30T09:40:28;9.40;87.70
81192;DHT22;70665;47.652;-2.730;2024-01-30T09:42:54;9.40;87.20
81192;DHT22;70665;47.652;-2.730;2024-01-30T09:45:24;9.40;87.40
81192;DHT22;70665;47.652;-2.730;2024-01-30T09:47:50;9.50;86.90
81192;DHT22;70665;47.652;-2.730;2024-01-30T09:50:16;9.60;86.70
81192;DHT22;70665;47.652;-2.730;2024-01-30T09:52:45;9.60;87.20
81192;DHT22;70665;47.652;-2.730;2024-01-30T09:55:11;9.70;87.00
81192;DHT22;70665;47.652;-2.730;2024-01-30T09:57:37;9.80;87.00
81192;DHT22;70665;47.652;-2.730;2024-01-30T10:00:04;9.90;86.80
81192;DHT22;70665;47.652;-2.730;2024-01-30T10:02:31;10.00;86.80
81192;DHT22;70665;47.652;-2.730;2024-01-30T10:04:57;10.10;86.50
81192;DHT22;70665;47.652;-2.730;2024-01-30T10:07:23;10.10;86.10
81192;DHT22;70665;47.652;-2.730;2024-01-30T10:09:48;10.20;86.10
81192;DHT22;70665;47.652;-2.730;2024-01-30T10:12:15;10.30;86.40
81192;DHT22;70665;47.652;-2.730;2024-01-30T10:14:42;10.40;86.20
81192;DHT22;70665;47.652;-2.730;2024-01-30T10:17:08;10.50;86.00
81192;DHT22;70665;47.652;-2.730;2024-01-30T10:19:35;10.60;85.20
81192;DHT22;70665;47.652;-2.730;2024-01-30T10:22:01;10.60;85.00
81192;DHT22;70665;47.652;-2.730;2024-01-30T10:24:26;10.70;85.00
81192;DHT22;70665;47.652;-2.730;2024-01-30T10:26:55;10.70;85.00
81192;DHT22;70665;47.652;-2.730;2024-01-30T10:29:21;10.80;84.60
81192;DHT22;70665;47.652;-2.730;2024-01-30T10:31:57;10.80;83.90
81192;DHT22;70665;47.652;-2.730;2024-01-30T10:34:23;10.90;84.00
81192;DHT22;70665;47.652;-2.730;2024-01-30T10:36:50;11.00;83.90
81192;DHT22;70665;47.652;-2.730;2024-01-30T10:39:17;11.00;83.80
81192;DHT22;70665;47.652;-2.730;2024-01-30T10:41:44;11.10;83.40
81192;DHT22;70665;47.652;-2.730;2024-01-30T10:44:10;11.00;83.30
81192;DHT22;70665;47.652;-2.730;2024-01-30T10:46:38;11.20;82.80
81192;DHT22;70665;47.652;-2.730;2024-01-30T10:49:05;11.40;82.70
81192;DHT22;70665;47.652;-2.730;2024-01-30T10:51:32;11.40;82.30
81192;DHT22;70665;47.652;-2.730;2024-01-30T10:53:58;11.40;80.90
81192;DHT22;70665;47.652;-2.730;2024-01-30T10:56:24;11.50;81.10
81192;DHT22;70665;47.652;-2.730;2024-01-30T10:58:51;11.60;81.00
81192;DHT22;70665;47.652;-2.730;2024-01-30T11:01:22;11.70;78.60
81192;DHT22;70665;47.652;-2.730;2024-01-30T11:03:55;11.90;78.40
81192;DHT22;70665;47.652;-2.730;2024-01-30T11:06:25;12.00;76.60
81192;DHT22;70665;47.652;-2.730;2024-01-30T11:09:01;12.00;76.00
81192;DHT22;70665;47.652;-2.730;2024-01-30T11:11:29;12.10;76.50
81192;DHT22;70665;47.652;-2.730;2024-01-30T11:13:54;12.20;71.00
81192;DHT22;70665;47.652;-2.730;2024-01-30T11:16:20;12.10;71.10
81192;DHT22;70665;47.652;-2.730;2024-01-30T11:18:50;12.20;67.20
81192;DHT22;70665;47.652;-2.730;2024-01-30T11:21:17;12.00;70.10
81192;DHT22;70665;47.652;-2.730;2024-01-30T11:23:42;12.30;70.60
81192;DHT22;70665;47.652;-2.730;2024-01-30T11:26:10;12.50;67.50
81192;DHT22;70665;47.652;-2.730;2024-01-30T11:28:37;12.50;68.10
81192;DHT22;70665;47.652;-2.730;2024-01-30T11:31:04;12.70;64.60
81192;DHT22;70665;47.652;-2.730;2024-01-30T11:33:30;12.60;61.10
81192;DHT22;70665;47.652;-2.730;2024-01-30T11:35:59;12.70;61.20
81192;DHT22;70665;47.652;-2.730;2024-01-30T11:38:27;12.80;66.20
81192;DHT22;70665;47.652;-2.730;2024-01-30T11:40:54;13.00;64.90
81192;DHT22;70665;47.652;-2.730;2024-01-30T11:43:21;13.00;64.00
81192;DHT22;70665;47.652;-2.730;2024-01-30T11:45:46;13.20;64.90
81192;DHT22;70665;47.652;-2.730;2024-01-30T11:48:12;13.40;64.80
81192;DHT22;70665;47.652;-2.730;2024-01-30T11:50:39;13.50;67.30
81192;DHT22;70665;47.652;-2.730;2024-01-30T11:53:08;13.40;63.50
81192;DHT22;70665;47.652;-2.730;2024-01-30T11:55:34;13.40;64.50
81192;DHT22;70665;47.652;-2.730;2024-01-30T11:58:02;13.50;66.80
81192;DHT22;70665;47.652;-2.730;2024-01-30T12:00:28;13.40;64.30
81192;DHT22;70665;47.652;-2.730;2024-01-30T12:02:55;13.60;67.10
81192;DHT22;70665;47.652;-2.730;2024-01-30T12:05:24;13.60;65.40
81192;DHT22;70665;47.652;-2.730;2024-01-30T12:07:50;13.30;65.10
81192;DHT22;70665;47.652;-2.730;2024-01-30T12:10:16;13.50;67.20
81192;DHT22;70665;47.652;-2.730;2024-01-30T12:12:47;13.60;64.40
81192;DHT22;70665;47.652;-2.730;2024-01-30T12:15:14;13.80;66.20
81192;DHT22;70665;47.652;-2.730;2024-01-30T12:17:40;14.00;65.80
81192;DHT22;70665;47.652;-2.730;2024-01-30T12:20:11;14.30;64.90
81192;DHT22;70665;47.652;-2.730;2024-01-30T12:22:41;14.40;65.20
81192;DHT22;70665;47.652;-2.730;2024-01-30T12:25:11;14.50;62.80
81192;DHT22;70665;47.652;-2.730;2024-01-30T12:27:37;14.70;62.60
81192;DHT22;70665;47.652;-2.730;2024-01-30T12:30:07;14.80;60.10
81192;DHT22;70665;47.652;-2.730;2024-01-30T12:32:40;14.70;60.10
81192;DHT22;70665;47.652;-2.730;2024-01-30T12:35:10;14.80;58.40
81192;DHT22;70665;47.652;-2.730;2024-01-30T12:37:37;14.80;61.10
81192;DHT22;70665;47.652;-2.730;2024-01-30T12:40:03;15.00;59.70
81192;DHT22;70665;47.652;-2.730;2024-01-30T12:42:28;15.20;59.20
81192;DHT22;70665;47.652;-2.730;2024-01-30T12:44:56;15.40;61.00
81192;DHT22;70665;47.652;-2.730;2024-01-30T12:47:22;15.80;60.30
81192;DHT22;70665;47.652;-2.730;2024-01-30T12:49:47;16.20;59.30
81192;DHT22;70665;47.652;-2.730;2024-01-30T12:52:16;16.00;53.60
81192;DHT22;70665;47.652;-2.730;2024-01-30T12:54:42;15.70;57.10
81192;DHT22;70665;47.652;-2.730;2024-01-30T12:57:08;15.30;54.60
81192;DHT22;70665;47.652;-2.730;2024-01-30T12:59:33;14.90;57.70
81192;DHT22;70665;47.652;-2.730;2024-01-30T13:02:01;14.50;59.50
81192;DHT22;70665;47.652;-2.730;2024-01-30T13:04:27;15.30;60.30
81192;DHT22;70665;47.652;-2.730;2024-01-30T13:06:54;15.80;59.50
81192;DHT22;70665;47.652;-2.730;2024-01-30T13:09:20;16.30;57.20
81192;DHT22;70665;47.652;-2.730;2024-01-30T13:11:46;17.00;57.70
81192;DHT22;70665;47.652;-2.730;2024-01-30T13:14:11;17.20;52.10
81192;DHT22;70665;47.652;-2.730;2024-01-30T13:16:37;17.30;55.70
81192;DHT22;70665;47.652;-2.730;2024-01-30T13:19:03;17.40;49.30
81192;DHT22;70665;47.652;-2.730;2024-01-30T13:21:29;17.80;50.90
81192;DHT22;70665;47.652;-2.730;2024-01-30T13:23:54;18.20;50.40
81192;DHT22;70665;47.652;-2.730;2024-01-30T13:26:23;18.80;53.50
81192;DHT22;70665;47.652;-2.730;2024-01-30T13:28:48;19.10;52.10
81192;DHT22;70665;47.652;-2.730;2024-01-30T13:31:14;19.50;47.40
81192;DHT22;70665;47.652;-2.730;2024-01-30T13:33:40;19.60;48.60
81192;DHT22;70665;47.652;-2.730;2024-01-30T13:36:08;19.50;49.10
81192;DHT22;70665;47.652;-2.730;2024-01-30T13:38:34;20.20;53.60
81192;DHT22;70665;47.652;-2.730;2024-01-30T13:40:59;20.30;51.10
81192;DHT22;70665;47.652;-2.730;2024-01-30T13:43:25;20.10;48.80
81192;DHT22;70665;47.652;-2.730;2024-01-30T13:45:51;19.90;47.40
81192;DHT22;70665;47.652;-2.730;2024-01-30T13:48:17;20.30;48.20
81192;DHT22;70665;47.652;-2.730;2024-01-30T13:50:43;20.20;48.20
81192;DHT22;70665;47.652;-2.730;2024-01-30T13:53:09;20.30;50.90
81192;DHT22;70665;47.652;-2.730;2024-01-30T13:55:34;20.40;46.40
81192;DHT22;70665;47.652;-2.730;2024-01-30T13:58:00;20.30;46.80
81192;DHT22;70665;47.652;-2.730;2024-01-30T14:00:27;20.80;49.50
81192;DHT22;70665;47.652;-2.730;2024-01-30T14:02:52;21.40;45.90
81192;DHT22;70665;47.652;-2.730;2024-01-30T14:05:20;22.10;50.00
81192;DHT22;70665;47.652;-2.730;2024-01-30T14:07:47;20.80;47.50
81192;DHT22;70665;47.652;-2.730;2024-01-30T14:10:13;19.50;48.80
81192;DHT22;70665;47.652;-2.730;2024-01-30T14:12:38;18.50;54.20
81192;DHT22;70665;47.652;-2.730;2024-01-30T14:15:05;17.90;55.90
81192;DHT22;70665;47.652;-2.730;2024-01-30T14:17:30;17.30;54.20
81192;DHT22;70665;47.652;-2.730;2024-01-30T14:19:56;16.80;55.50
81192;DHT22;70665;47.652;-2.730;2024-01-30T14:22:22;16.70;58.80
81192;DHT22;70665;47.652;-2.730;2024-01-30T14:24:47;16.80;56.50
81192;DHT22;70665;47.652;-2.730;2024-01-30T14:27:13;18.10;49.50
81192;DHT22;70665;47.652;-2.730;2024-01-30T14:29:39;19.10;52.40
81192;DHT22;70665;47.652;-2.730;2024-01-30T14:32:05;20.00;51.10
81192;DHT22;70665;47.652;-2.730;2024-01-30T14:34:30;20.40;50.40
81192;DHT22;70665;47.652;-2.730;2024-01-30T14:36:56;21.00;50.30
81192;DHT22;70665;47.652;-2.730;2024-01-30T14:39:22;21.30;42.90
81192;DHT22;70665;47.652;-2.730;2024-01-30T14:41:47;21.30;43.60
81192;DHT22;70665;47.652;-2.730;2024-01-30T14:44:13;21.00;45.60
81192;DHT22;70665;47.652;-2.730;2024-01-30T14:46:39;21.20;44.20
81192;DHT22;70665;47.652;-2.730;2024-01-30T14:49:05;20.90;48.00
81192;DHT22;70665;47.652;-2.730;2024-01-30T14:51:32;21.00;47.50
81192;DHT22;70665;47.652;-2.730;2024-01-30T14:53:59;20.60;45.40
81192;DHT22;70665;47.652;-2.730;2024-01-30T14:56:25;20.50;47.00
81192;DHT22;70665;47.652;-2.730;2024-01-30T14:58:51;20.70;49.80
81192;DHT22;70665;47.652;-2.730;2024-01-30T15:01:16;20.80;46.40
81192;DHT22;70665;47.652;-2.730;2024-01-30T15:03:42;20.60;46.00
81192;DHT22;70665;47.652;-2.730;2024-01-30T15:06:09;19.30;50.50
81192;DHT22;70665;47.652;-2.730;2024-01-30T15:08:34;17.70;52.20
81192;DHT22;70665;47.652;-2.730;2024-01-30T15:11:00;16.90;56.40
81192;DHT22;70665;47.652;-2.730;2024-01-30T15:13:26;16.40;57.60
81192;DHT22;70665;47.652;-2.730;2024-01-30T15:15:51;17.10;54.20